LEHA weather

Hospital Alcorcón Heliport
Alcorcón, Madrid, Spain

Public forecast

Using degrees Celsius for public forecast. Weather courtesy of forecast.io.

Closest aviation weather report (METAR) to Hospital Alcorcón Heliport

Closest report is Getafe Air Base, 6.2 nm (11.5 km) ESE. Retrieved 2019/10/18 16:00 UTC (1 hour ago):

LEGT 181600Z 24010KT 9999 SCT020 20/15 Q1015

Closest aviation forecast (TAF) to Hospital Alcorcón Heliport

Forecast is more than 12 hours old.

Closest forecast is Getafe Air Base, 6.2 nm (11.5 km) ESE. Retrieved 2018/03/28 12:33 UTC (2 years ago):

TAF LEGT 281100Z 2812/2824 24010KT CAVOK PROB40 TEMPO 2814/2818 27015G25KT TEMPO 2820/2824 28008KT